createdAt,value
2019-01-08T00:00:15.327Z,0.60
2019-01-08T00:02:43.703Z,1.00
2019-01-08T00:05:12.083Z,0.93
2019-01-08T00:07:40.453Z,0.73
2019-01-08T00:10:08.840Z,0.50
2019-01-08T00:12:37.461Z,0.80
2019-01-08T00:15:12.608Z,1.07
2019-01-08T00:17:40.975Z,0.53
2019-01-08T00:20:10.294Z,0.50
2019-01-08T00:22:39.576Z,0.73
2019-01-08T00:25:07.954Z,0.40
2019-01-08T00:27:36.331Z,1.87
2019-01-08T00:30:07.046Z,1.10
2019-01-08T00:32:35.428Z,0.37
2019-01-08T00:35:03.808Z,0.50
2019-01-08T00:37:32.180Z,0.93
2019-01-08T00:40:00.576Z,0.53
2019-01-08T00:42:28.948Z,0.37
2019-01-08T00:44:57.341Z,0.73
2019-01-08T00:47:25.721Z,0.43
2019-01-08T00:49:54.108Z,0.33
2019-01-08T00:52:22.476Z,0.50
2019-01-08T00:54:50.846Z,0.70
2019-01-08T00:57:19.234Z,0.73
2019-01-08T00:59:47.602Z,0.90
2019-01-08T01:02:15.983Z,0.97
2019-01-08T01:04:44.360Z,1.20
2019-01-08T01:07:12.746Z,1.10
2019-01-08T01:09:41.124Z,2.13
2019-01-08T01:12:09.506Z,2.43
2019-01-08T01:14:37.873Z,4.00
2019-01-08T01:17:06.576Z,3.50
2019-01-08T01:19:34.946Z,4.47
2019-01-08T01:22:03.327Z,8.50
2019-01-08T01:24:31.704Z,9.53
2019-01-08T01:27:00.193Z,6.90
2019-01-08T01:29:28.571Z,10.23
2019-01-08T01:31:56.956Z,9.27
2019-01-08T01:34:25.328Z,11.23
2019-01-08T01:36:53.712Z,11.47
2019-01-08T01:39:22.089Z,10.63
2019-01-08T01:41:50.703Z,14.03
2019-01-08T01:44:19.078Z,14.40
2019-01-08T01:46:47.458Z,10.47
2019-01-08T01:49:15.844Z,11.70
2019-01-08T01:51:44.214Z,10.13
2019-01-08T01:54:12.602Z,13.37
2019-01-08T01:56:41.903Z,13.17
2019-01-08T01:59:10.279Z,15.43
2019-01-08T02:01:38.896Z,12.13
2019-01-08T02:04:07.671Z,13.90
2019-01-08T02:06:36.061Z,15.33
2019-01-08T02:09:05.825Z,13.43
2019-01-08T02:11:34.191Z,10.27
2019-01-08T02:14:02.583Z,13.87
2019-01-08T02:16:31.197Z,11.47
2019-01-08T02:18:59.580Z,18.17
2019-01-08T02:21:27.979Z,12.17
2019-01-08T02:23:56.359Z,11.93
2019-01-08T02:26:24.737Z,9.43
2019-01-08T02:28:53.122Z,12.57
2019-01-08T02:31:21.499Z,16.03
2019-01-08T02:33:49.871Z,13.73
2019-01-08T02:36:18.262Z,13.10
2019-01-08T02:38:48.549Z,13.77
2019-01-08T02:41:17.254Z,15.03
2019-01-08T02:43:45.966Z,11.17
2019-01-08T02:46:14.402Z,14.50
2019-01-08T02:48:42.884Z,11.60
2019-01-08T02:51:11.263Z,14.10
2019-01-08T02:53:39.640Z,17.30
2019-01-08T02:56:08.030Z,12.63
2019-01-08T02:58:36.405Z,14.30
2019-01-08T03:18:24.902Z,14.60
2019-01-08T03:20:53.374Z,18.63
2019-01-08T03:23:21.740Z,14.10
2019-01-08T03:25:50.134Z,18.57
2019-01-08T03:35:27.450Z,17.67
2019-01-08T03:37:55.829Z,16.07
2019-01-08T03:40:24.206Z,20.07
2019-01-08T03:42:52.583Z,15.70
2019-01-08T03:45:20.956Z,18.13
2019-01-08T03:47:49.342Z,15.60
2019-01-08T03:50:17.715Z,17.67
2019-01-08T03:52:46.109Z,18.00
2019-01-08T03:55:14.477Z,15.40
2019-01-08T03:57:43.092Z,15.47
2019-01-08T04:00:12.298Z,19.30
2019-01-08T04:02:40.919Z,14.93
2019-01-08T04:05:09.325Z,15.87
2019-01-08T04:11:33.044Z,16.00
2019-01-08T04:14:01.431Z,20.73
2019-01-08T04:16:29.804Z,13.53
2019-01-08T04:18:58.189Z,20.43
2019-01-08T04:39:30.630Z,12.57
2019-01-08T04:41:59.237Z,15.87
2019-01-08T04:44:27.625Z,13.30
2019-01-08T04:46:55.991Z,18.57
2019-01-08T04:49:24.382Z,19.37
2019-01-08T04:51:52.763Z,13.70
2019-01-08T04:54:21.173Z,18.00
2019-01-08T04:56:49.633Z,20.07
2019-01-08T04:59:17.999Z,17.80
2019-01-08T05:01:46.619Z,18.90
2019-01-08T05:04:14.989Z,17.33
2019-01-08T05:06:43.366Z,17.53
2019-01-08T05:09:11.750Z,17.27
2019-01-08T05:11:40.124Z,15.67
2019-01-08T05:14:08.500Z,25.83
2019-01-08T05:16:36.900Z,17.27
2019-01-08T05:19:05.263Z,18.93
2019-01-08T05:21:33.651Z,22.53
2019-01-08T05:24:02.024Z,20.10
2019-01-08T05:26:30.587Z,18.80
2019-01-08T05:28:58.977Z,19.67
2019-01-08T05:31:27.373Z,18.57
2019-01-08T05:33:56.938Z,16.10
2019-01-08T05:36:25.334Z,14.33
2019-01-08T05:38:53.709Z,21.50
2019-01-08T05:41:23.078Z,13.63
2019-01-08T05:43:51.449Z,20.13
2019-01-08T05:46:19.838Z,19.97
2019-01-08T05:48:48.216Z,20.07
2019-01-08T05:51:16.880Z,21.30
2019-01-08T05:53:45.261Z,17.03
2019-01-08T05:56:13.652Z,16.93
2019-01-08T05:58:42.027Z,29.73
2019-01-08T06:01:10.394Z,15.90
2019-01-08T06:03:38.774Z,20.97
2019-01-08T06:06:07.186Z,15.27
2019-01-08T06:08:35.545Z,17.27
2019-01-08T06:11:03.928Z,17.17
2019-01-08T06:13:32.305Z,16.77
2019-01-08T06:16:00.681Z,20.03
2019-01-08T06:18:29.085Z,19.00
2019-01-08T06:20:57.470Z,13.57
2019-01-08T06:23:25.847Z,23.30
2019-01-08T06:25:54.234Z,18.73
2019-01-08T06:28:22.603Z,21.93
2019-01-08T06:30:50.977Z,22.77
2019-01-08T06:33:19.347Z,15.00
2019-01-08T06:35:47.734Z,19.23
2019-01-08T06:38:16.114Z,16.07
2019-01-08T06:40:44.499Z,20.47
2019-01-08T06:43:12.859Z,15.43
2019-01-08T06:45:41.239Z,21.13
2019-01-08T06:48:09.606Z,18.47
2019-01-08T06:50:37.988Z,14.03
2019-01-08T06:53:06.361Z,22.00
2019-01-08T06:55:34.739Z,18.40
2019-01-08T06:58:03.108Z,19.60
2019-01-08T07:00:33.445Z,15.23
2019-01-08T07:03:01.584Z,16.20
2019-01-08T07:05:29.969Z,14.87
2019-01-08T07:07:58.336Z,18.53
2019-01-08T07:10:26.711Z,13.23
2019-01-08T07:12:56.053Z,17.93
2019-01-08T07:15:24.417Z,23.57
2019-01-08T07:17:52.796Z,22.90
2019-01-08T07:20:21.169Z,19.33
2019-01-08T07:22:49.553Z,16.53
2019-01-08T07:25:17.941Z,20.83
2019-01-08T07:27:46.347Z,14.77
2019-01-08T07:30:14.751Z,13.80
2019-01-08T07:32:43.134Z,18.00
2019-01-08T07:35:12.481Z,14.10
2019-01-08T07:38:02.107Z,16.03
2019-01-08T07:40:30.488Z,14.23
2019-01-08T07:42:58.876Z,23.17
2019-01-08T07:45:27.249Z,15.30
2019-01-08T07:47:55.716Z,21.53
2019-01-08T07:50:24.105Z,21.07
2019-01-08T07:52:53.434Z,26.57
2019-01-08T07:55:21.807Z,18.17
2019-01-08T07:57:50.446Z,15.87
2019-01-08T08:00:18.797Z,16.60
2019-01-08T08:02:47.244Z,27.13
2019-01-08T08:05:15.612Z,16.03
2019-01-08T08:07:43.988Z,17.53
2019-01-08T08:10:18.201Z,20.27
2019-01-08T08:12:46.585Z,17.17
2019-01-08T08:15:14.949Z,16.93
2019-01-08T08:17:43.344Z,15.10
2019-01-08T08:20:14.684Z,17.63
2019-01-08T08:22:43.067Z,18.23
2019-01-08T08:25:11.455Z,25.67
2019-01-08T08:27:40.077Z,16.67
2019-01-08T08:30:10.012Z,17.63
2019-01-08T08:32:38.407Z,14.00
2019-01-08T08:35:08.768Z,16.97
2019-01-08T08:37:39.685Z,13.93
2019-01-08T08:40:08.375Z,12.13
2019-01-08T08:42:36.737Z,10.97
2019-01-08T08:45:08.573Z,8.50
2019-01-08T08:47:36.994Z,8.23
2019-01-08T08:50:06.624Z,10.13
2019-01-08T08:52:35.024Z,10.70
2019-01-08T08:55:03.465Z,15.80
2019-01-08T08:57:33.329Z,17.23
2019-01-08T09:00:01.700Z,15.93
2019-01-08T09:02:30.081Z,19.03
2019-01-08T09:04:58.467Z,16.20
2019-01-08T09:07:26.837Z,18.33
2019-01-08T09:09:55.446Z,16.40
2019-01-08T09:12:23.828Z,20.43
2019-01-08T09:14:52.206Z,19.50
2019-01-08T09:17:20.586Z,14.30
2019-01-08T09:19:48.957Z,18.97
2019-01-08T09:22:17.345Z,16.00
2019-01-08T09:24:45.709Z,23.30
2019-01-08T09:27:14.096Z,19.83
2019-01-08T09:29:42.468Z,20.73
2019-01-08T09:32:10.862Z,21.70
2019-01-08T09:34:39.305Z,14.00
2019-01-08T09:37:07.688Z,20.47
2019-01-08T09:39:36.055Z,18.00
2019-01-08T09:42:04.506Z,15.80
2019-01-08T09:44:33.112Z,19.33
2019-01-08T09:47:01.496Z,17.23
2019-01-08T09:49:29.870Z,17.67
2019-01-08T09:51:58.271Z,14.40
2019-01-08T09:54:26.651Z,19.87
2019-01-08T09:56:55.014Z,14.77
2019-01-08T09:59:23.411Z,17.57
2019-01-08T10:01:51.801Z,13.73
2019-01-08T10:04:20.187Z,19.53
2019-01-08T10:06:48.558Z,16.70
2019-01-08T10:09:16.945Z,14.27
2019-01-08T10:11:45.317Z,19.30
2019-01-08T10:14:14.520Z,20.03
2019-01-08T10:16:42.892Z,19.63
2019-01-08T10:19:11.275Z,13.43
2019-01-08T10:21:39.644Z,17.40
2019-01-08T10:24:08.034Z,15.47
2019-01-08T10:26:36.414Z,14.80
2019-01-08T10:29:04.818Z,13.37
2019-01-08T10:31:33.200Z,16.80
2019-01-08T10:34:01.576Z,19.07
2019-01-08T10:36:29.963Z,16.17
2019-01-08T10:38:58.334Z,19.57
2019-01-08T10:41:26.712Z,11.67
2019-01-08T10:43:55.074Z,11.90
2019-01-08T10:46:23.453Z,13.73
2019-01-08T10:48:51.839Z,13.83
2019-01-08T10:51:20.222Z,19.40
2019-01-08T10:53:48.826Z,19.40
2019-01-08T10:56:17.203Z,16.10
2019-01-08T10:58:45.577Z,11.93
2019-01-08T11:01:13.941Z,11.73
2019-01-08T11:03:42.345Z,14.97
2019-01-08T11:06:10.707Z,16.80
2019-01-08T11:08:39.103Z,20.33
2019-01-08T11:11:07.483Z,16.00
2019-01-08T11:13:36.118Z,16.90
2019-01-08T11:16:04.499Z,17.00
2019-01-08T11:18:32.875Z,16.57
2019-01-08T11:21:01.253Z,16.97
2019-01-08T11:23:29.632Z,12.33
2019-01-08T11:25:57.998Z,11.67
2019-01-08T11:28:26.386Z,15.43
2019-01-08T11:30:54.766Z,16.17
2019-01-08T11:33:23.144Z,13.43
2019-01-08T11:35:51.582Z,18.47
2019-01-08T11:38:19.965Z,18.70
2019-01-08T11:40:48.369Z,15.07
2019-01-08T11:43:16.746Z,16.10
2019-01-08T11:45:45.126Z,12.47
2019-01-08T11:48:14.522Z,12.83
2019-01-08T11:50:42.906Z,15.97
2019-01-08T11:53:11.515Z,19.37
2019-01-08T11:55:39.892Z,14.37
2019-01-08T11:58:08.264Z,14.73
2019-01-08T12:00:36.639Z,15.83
2019-01-08T12:03:05.022Z,19.17
2019-01-08T12:05:33.393Z,21.53
2019-01-08T12:08:01.768Z,21.83
2019-01-08T12:10:32.067Z,18.87
2019-01-08T12:13:00.449Z,14.07
2019-01-08T12:15:28.824Z,17.97
2019-01-08T12:17:57.222Z,20.10
2019-01-08T12:20:25.606Z,18.77
2019-01-08T12:22:54.287Z,16.60
2019-01-08T12:25:22.668Z,16.77
2019-01-08T12:27:51.040Z,17.40
2019-01-08T12:30:19.420Z,15.53
2019-01-08T12:32:47.811Z,16.73
2019-01-08T12:35:16.191Z,13.77
2019-01-08T12:37:44.568Z,18.90
2019-01-08T12:40:13.017Z,16.87
2019-01-08T12:42:41.661Z,9.53
2019-01-08T12:45:10.013Z,15.30
2019-01-08T12:47:38.394Z,17.63
2019-01-08T12:50:08.012Z,13.23
2019-01-08T12:52:36.389Z,19.00
2019-01-08T12:55:05.009Z,13.67
2019-01-08T12:57:33.388Z,7.43
2019-01-08T13:00:01.757Z,6.80
2019-01-08T13:02:30.132Z,6.77
2019-01-08T13:04:58.733Z,6.70
2019-01-08T13:07:27.344Z,8.93
2019-01-08T13:09:55.718Z,8.43
2019-01-08T13:12:24.110Z,10.97
2019-01-08T13:14:52.599Z,11.27
2019-01-08T13:17:20.970Z,12.17
2019-01-08T13:19:50.339Z,13.63
2019-01-08T13:22:18.829Z,13.47
2019-01-08T13:24:47.285Z,19.60
2019-01-08T13:27:15.667Z,13.90
2019-01-08T13:29:44.052Z,15.30
2019-01-08T13:32:12.437Z,18.53
2019-01-08T13:34:40.879Z,16.73
2019-01-08T13:37:09.260Z,15.10
2019-01-08T13:39:37.638Z,19.60
2019-01-08T13:42:06.008Z,13.83
2019-01-08T13:44:34.392Z,14.87
2019-01-08T13:47:02.761Z,15.60
2019-01-08T13:49:31.149Z,19.30
2019-01-08T13:51:59.527Z,13.17
2019-01-08T13:54:27.912Z,14.30
2019-01-08T13:56:56.278Z,14.70
2019-01-08T13:59:24.723Z,17.30
2019-01-08T14:01:53.091Z,15.23
2019-01-08T14:04:21.493Z,18.30
2019-01-08T14:06:50.862Z,13.13
2019-01-08T14:09:20.161Z,11.47
2019-01-08T14:11:48.541Z,15.73
2019-01-08T14:14:16.914Z,15.30
2019-01-08T14:16:45.317Z,15.60
2019-01-08T14:19:13.693Z,17.63
2019-01-08T14:21:42.068Z,26.90
2019-01-08T14:24:10.443Z,21.43
2019-01-08T14:26:39.059Z,26.10
2019-01-08T14:29:07.439Z,23.10
2019-01-08T14:31:36.159Z,16.47
2019-01-08T14:34:04.612Z,21.73
2019-01-08T14:36:32.995Z,16.23
2019-01-08T14:39:01.365Z,20.17
2019-01-08T14:41:29.739Z,14.37
2019-01-08T14:43:58.122Z,13.60
2019-01-08T14:46:26.492Z,10.83
2019-01-08T14:48:54.873Z,9.43
2019-01-08T14:51:23.489Z,10.77
2019-01-08T14:53:52.831Z,9.90
2019-01-08T14:56:21.202Z,14.70
2019-01-08T14:58:49.589Z,12.47
2019-01-08T15:01:19.839Z,17.77
2019-01-08T15:03:48.221Z,15.60
2019-01-08T15:06:16.659Z,15.83
2019-01-08T15:08:45.068Z,20.07
2019-01-08T15:11:13.416Z,17.90
2019-01-08T15:13:41.843Z,18.57
2019-01-08T15:16:10.238Z,14.50
2019-01-08T15:18:38.620Z,19.43
2019-01-08T15:21:07.954Z,14.47
2019-01-08T15:23:36.350Z,21.17
2019-01-08T15:26:04.725Z,21.30
2019-01-08T15:28:33.289Z,21.50
2019-01-08T15:31:01.655Z,21.33
2019-01-08T15:33:30.028Z,18.93
2019-01-08T15:35:58.409Z,19.70
2019-01-08T15:38:26.783Z,15.07
2019-01-08T15:40:55.163Z,23.40
2019-01-08T15:43:24.558Z,19.70
2019-01-08T15:45:52.939Z,14.90
2019-01-08T15:48:21.329Z,19.83
2019-01-08T15:50:55.711Z,17.23
2019-01-08T15:53:24.103Z,14.17
2019-01-08T15:55:52.477Z,18.43
2019-01-08T15:58:20.848Z,19.07
2019-01-08T16:00:49.302Z,18.07
2019-01-08T16:03:17.668Z,22.37
2019-01-08T16:05:51.790Z,14.20
2019-01-08T16:08:20.165Z,20.67
2019-01-08T16:10:49.469Z,16.23
2019-01-08T16:13:18.763Z,17.20
2019-01-08T16:15:47.217Z,18.10
2019-01-08T16:18:18.614Z,14.37
2019-01-08T16:20:46.995Z,17.90
2019-01-08T16:23:17.290Z,19.10
2019-01-08T16:25:45.673Z,23.33
2019-01-08T16:28:14.043Z,17.00
2019-01-08T16:30:43.454Z,21.43
2019-01-08T16:33:16.176Z,18.87
2019-01-08T16:35:42.898Z,19.57
2019-01-08T16:38:11.269Z,15.93
2019-01-08T16:40:39.912Z,13.07
2019-01-08T16:43:08.285Z,19.13
2019-01-08T16:45:36.834Z,17.23
2019-01-08T16:48:06.132Z,19.87
2019-01-08T16:50:36.448Z,18.10
2019-01-08T16:53:04.825Z,14.93
2019-01-08T16:55:33.212Z,19.23
2019-01-08T16:58:01.660Z,12.50
2019-01-08T17:00:31.245Z,15.10
2019-01-08T17:02:59.845Z,13.63
2019-01-08T17:05:29.157Z,12.87
2019-01-08T17:07:57.531Z,12.97
2019-01-08T17:10:25.913Z,14.70
2019-01-08T17:13:00.138Z,19.77
2019-01-08T17:15:29.429Z,13.73
2019-01-08T17:17:57.805Z,21.07
2019-01-08T17:20:26.223Z,20.37
2019-01-08T17:22:54.604Z,15.20
2019-01-08T17:25:22.993Z,20.63
2019-01-08T17:27:51.369Z,19.53
2019-01-08T17:30:19.823Z,17.10
2019-01-08T17:32:48.231Z,16.60
2019-01-08T17:35:16.608Z,16.90
2019-01-08T17:37:45.051Z,20.67
2019-01-08T17:40:14.427Z,20.40
2019-01-08T17:42:42.798Z,17.13
2019-01-08T17:45:11.458Z,16.63
2019-01-08T17:47:39.822Z,18.37
2019-01-08T17:50:08.534Z,17.57
2019-01-08T17:52:36.908Z,22.70
2019-01-08T17:55:05.720Z,11.70
2019-01-08T17:57:34.086Z,16.17
2019-01-08T18:00:02.467Z,19.13
2019-01-08T18:02:31.792Z,18.07
2019-01-08T18:05:00.177Z,14.37
2019-01-08T18:07:28.557Z,18.67
2019-01-08T18:09:56.966Z,20.03
2019-01-08T18:12:25.318Z,15.10
2019-01-08T18:14:53.818Z,21.03
2019-01-08T18:17:23.267Z,14.17
2019-01-08T18:19:51.636Z,14.07
2019-01-08T18:22:20.991Z,15.80
2019-01-08T18:24:49.440Z,15.87
2019-01-08T18:27:17.815Z,16.30
2019-01-08T18:29:47.138Z,16.77
2019-01-08T18:32:15.549Z,26.70
2019-01-08T18:34:44.127Z,18.17
2019-01-08T18:37:12.506Z,21.27
2019-01-08T18:39:41.049Z,15.03
2019-01-08T18:42:09.435Z,11.87
2019-01-08T18:44:38.043Z,18.20
2019-01-08T18:47:06.432Z,14.63
2019-01-08T18:49:34.808Z,19.17
2019-01-08T18:52:03.439Z,15.57
2019-01-08T18:54:31.817Z,17.77
2019-01-08T18:57:00.431Z,19.63
2019-01-08T18:59:28.811Z,22.80
2019-01-08T19:01:57.195Z,19.00
2019-01-08T19:04:25.567Z,21.50
2019-01-08T19:06:53.942Z,16.10
2019-01-08T19:09:33.341Z,14.53
2019-01-08T19:12:01.711Z,17.37
2019-01-08T19:14:32.738Z,12.90
2019-01-08T19:17:02.097Z,14.03
2019-01-08T19:19:30.471Z,14.03
2019-01-08T19:22:00.841Z,18.57
2019-01-08T19:24:29.180Z,14.20
2019-01-08T19:26:58.592Z,16.37
2019-01-08T19:29:27.140Z,18.83
2019-01-08T19:31:55.489Z,15.83
2019-01-08T19:34:23.872Z,12.13
2019-01-08T19:36:52.245Z,17.50
2019-01-08T19:39:20.617Z,17.80
2019-01-08T19:41:49.908Z,19.17
2019-01-08T19:44:18.296Z,14.33
2019-01-08T19:46:46.691Z,11.27
2019-01-08T19:49:15.084Z,20.77
2019-01-08T19:51:45.643Z,16.97
2019-01-08T19:54:14.028Z,14.17
2019-01-08T19:56:43.734Z,16.63
2019-01-08T19:59:12.282Z,19.07
2019-01-08T20:01:41.616Z,13.27
2019-01-08T20:04:17.731Z,18.57
2019-01-08T20:06:41.420Z,16.40
2019-01-08T20:09:11.722Z,16.27
2019-01-08T20:11:40.097Z,18.07
2019-01-08T20:14:08.481Z,16.50
2019-01-08T20:16:36.855Z,15.67
2019-01-08T20:19:05.298Z,12.83
2019-01-08T20:21:33.679Z,19.53
2019-01-08T20:24:06.471Z,20.13
2019-01-08T20:26:32.179Z,16.63
2019-01-08T20:29:00.767Z,15.20
2019-01-08T20:31:30.084Z,19.27
2019-01-08T20:33:58.476Z,19.97
2019-01-08T20:36:26.860Z,14.33
2019-01-08T20:38:55.242Z,16.60
2019-01-08T20:41:23.626Z,22.43
2019-01-08T20:43:53.004Z,18.87
2019-01-08T20:46:22.334Z,16.10
2019-01-08T20:48:50.722Z,15.37
2019-01-08T20:51:19.368Z,16.60
2019-01-08T20:53:47.745Z,20.87
2019-01-08T20:56:16.193Z,20.20
2019-01-08T20:58:44.582Z,22.10
2019-01-08T21:01:12.976Z,16.97
2019-01-08T21:03:41.382Z,17.83
2019-01-08T21:06:15.683Z,16.67
2019-01-08T21:08:44.108Z,17.37
2019-01-08T21:11:13.200Z,16.93
2019-01-08T21:13:41.578Z,21.37
2019-01-08T21:16:09.960Z,16.63
2019-01-08T21:18:38.399Z,14.77
2019-01-08T21:21:06.736Z,18.67
2019-01-08T21:23:35.360Z,18.43
2019-01-08T21:26:03.728Z,21.93
2019-01-08T21:28:32.117Z,19.97
2019-01-08T21:31:00.503Z,16.03
2019-01-08T21:33:29.796Z,14.57
2019-01-08T21:35:59.123Z,14.33
2019-01-08T21:38:27.548Z,19.73
2019-01-08T21:40:56.879Z,14.53
2019-01-08T21:43:25.262Z,15.33
2019-01-08T21:45:53.901Z,14.13
2019-01-08T21:48:22.490Z,12.57
2019-01-08T21:50:50.888Z,13.07
2019-01-08T21:53:19.244Z,17.43
2019-01-08T21:55:47.612Z,10.70
2019-01-08T21:58:15.994Z,13.90
2019-01-08T22:00:44.366Z,15.40
2019-01-08T22:03:12.763Z,14.97
2019-01-08T22:05:41.132Z,14.17
2019-01-08T22:08:09.517Z,20.17
2019-01-08T22:10:37.891Z,21.10
2019-01-08T22:13:06.273Z,16.80
2019-01-08T22:15:34.648Z,15.37
2019-01-08T22:18:03.025Z,16.30
2019-01-08T22:20:31.404Z,12.47
2019-01-08T22:22:59.796Z,18.17
2019-01-08T22:25:28.487Z,22.23
2019-01-08T22:27:56.934Z,13.03
2019-01-08T22:30:25.328Z,14.37
2019-01-08T22:32:53.770Z,10.67
2019-01-08T22:35:22.216Z,12.40
2019-01-08T22:37:50.592Z,13.43
2019-01-08T22:40:18.969Z,18.50
2019-01-08T22:42:47.340Z,17.90
2019-01-08T22:45:15.793Z,14.10
2019-01-08T22:47:44.254Z,20.37
2019-01-08T22:50:12.693Z,18.80
2019-01-08T22:52:41.071Z,13.40
2019-01-08T22:55:09.527Z,14.00
2019-01-08T22:57:37.972Z,16.77
2019-01-08T23:00:29.814Z,15.60
2019-01-08T23:02:58.212Z,15.30
2019-01-08T23:05:26.587Z,17.57
2019-01-08T23:07:54.974Z,12.80
2019-01-08T23:10:23.349Z,20.37
2019-01-08T23:12:51.966Z,15.87
2019-01-08T23:15:20.722Z,17.30
2019-01-08T23:17:49.333Z,13.43
2019-01-08T23:20:18.013Z,12.13
2019-01-08T23:22:46.659Z,9.77
2019-01-08T23:25:15.040Z,17.40
2019-01-08T23:27:43.436Z,19.67
2019-01-08T23:30:11.949Z,15.97
2019-01-08T23:32:40.337Z,16.17
2019-01-08T23:35:08.862Z,21.13
2019-01-08T23:37:37.261Z,18.57
2019-01-08T23:40:07.837Z,19.07
2019-01-08T23:42:36.217Z,14.40
2019-01-08T23:45:05.647Z,13.40
2019-01-08T23:47:34.018Z,18.03
2019-01-08T23:50:02.466Z,16.73
2019-01-08T23:52:33.893Z,23.70
2019-01-08T23:55:04.875Z,16.17
2019-01-08T23:57:36.438Z,11.67
